sensor_id;sensor_type;location;lat;lon;timestamp;temperature;humidity
31619;DHT22;18230;51.502;7.108;2022-07-06T00:01:52;16.90;99.90
31619;DHT22;18230;51.502;7.108;2022-07-06T00:06:52;16.90;99.90
31619;DHT22;18230;51.502;7.108;2022-07-06T00:11:53;16.80;99.90
31619;DHT22;18230;51.502;7.108;2022-07-06T00:16:54;16.70;99.90
31619;DHT22;18230;51.502;7.108;2022-07-06T00:21:54;16.60;99.90
31619;DHT22;18230;51.502;7.108;2022-07-06T00:26:55;16.50;99.90
31619;DHT22;18230;51.502;7.108;2022-07-06T00:31:56;16.30;99.90
31619;DHT22;18230;51.502;7.108;2022-07-06T00:36:56;16.30;99.90
31619;DHT22;18230;51.502;7.108;2022-07-06T00:41:57;16.20;99.90
31619;DHT22;18230;51.502;7.108;2022-07-06T00:46:58;16.20;99.90
31619;DHT22;18230;51.502;7.108;2022-07-06T00:51:59;16.10;99.90
31619;DHT22;18230;51.502;7.108;2022-07-06T00:57:00;16.10;99.90
31619;DHT22;18230;51.502;7.108;2022-07-06T01:02:01;16.10;99.90
31619;DHT22;18230;51.502;7.108;2022-07-06T01:07:02;16.10;99.90
31619;DHT22;18230;51.502;7.108;2022-07-06T01:12:03;16.10;99.90
31619;DHT22;18230;51.502;7.108;2022-07-06T01:17:04;16.10;99.90
31619;DHT22;18230;51.502;7.108;2022-07-06T01:22:05;16.00;99.90
31619;DHT22;18230;51.502;7.108;2022-07-06T01:27:07;16.00;99.90
31619;DHT22;18230;51.502;7.108;2022-07-06T01:32:10;16.10;99.90
31619;DHT22;18230;51.502;7.108;2022-07-06T01:37:11;16.00;99.90
31619;DHT22;18230;51.502;7.108;2022-07-06T01:42:11;16.10;99.90
31619;DHT22;18230;51.502;7.108;2022-07-06T01:47:12;16.00;99.90
31619;DHT22;18230;51.502;7.108;2022-07-06T01:52:13;16.00;99.90
31619;DHT22;18230;51.502;7.108;2022-07-06T01:57:14;15.90;99.90
31619;DHT22;18230;51.502;7.108;2022-07-06T02:02:14;15.80;99.90
31619;DHT22;18230;51.502;7.108;2022-07-06T02:07:15;15.70;99.90
31619;DHT22;18230;51.502;7.108;2022-07-06T02:12:16;15.60;99.90
31619;DHT22;18230;51.502;7.108;2022-07-06T02:17:17;15.50;99.90
31619;DHT22;18230;51.502;7.108;2022-07-06T02:22:17;15.50;99.90
31619;DHT22;18230;51.502;7.108;2022-07-06T02:27:18;15.40;99.90
31619;DHT22;18230;51.502;7.108;2022-07-06T02:32:19;15.40;99.90
31619;DHT22;18230;51.502;7.108;2022-07-06T02:37:19;15.30;99.90
31619;DHT22;18230;51.502;7.108;2022-07-06T02:42:20;15.30;99.90
31619;DHT22;18230;51.502;7.108;2022-07-06T02:47:21;15.30;99.90
31619;DHT22;18230;51.502;7.108;2022-07-06T02:52:22;15.20;99.90
31619;DHT22;18230;51.502;7.108;2022-07-06T02:57:22;15.20;99.90
31619;DHT22;18230;51.502;7.108;2022-07-06T03:02:23;15.20;99.90
31619;DHT22;18230;51.502;7.108;2022-07-06T03:07:24;15.10;99.90
31619;DHT22;18230;51.502;7.108;2022-07-06T03:12:25;15.00;99.90
31619;DHT22;18230;51.502;7.108;2022-07-06T03:17:25;15.00;99.90
31619;DHT22;18230;51.502;7.108;2022-07-06T03:22:26;15.10;99.90
31619;DHT22;18230;51.502;7.108;2022-07-06T03:27:27;15.20;99.90
31619;DHT22;18230;51.502;7.108;2022-07-06T03:32:27;15.20;99.90
31619;DHT22;18230;51.502;7.108;2022-07-06T03:37:29;15.20;99.90
31619;DHT22;18230;51.502;7.108;2022-07-06T03:42:30;15.20;99.90
31619;DHT22;18230;51.502;7.108;2022-07-06T03:47:31;15.20;99.90
31619;DHT22;18230;51.502;7.108;2022-07-06T03:52:31;15.10;99.90
31619;DHT22;18230;51.502;7.108;2022-07-06T03:57:32;15.10;99.90
31619;DHT22;18230;51.502;7.108;2022-07-06T04:02:33;15.00;99.90
31619;DHT22;18230;51.502;7.108;2022-07-06T04:07:33;15.10;99.90
31619;DHT22;18230;51.502;7.108;2022-07-06T04:12:43;15.20;99.90
31619;DHT22;18230;51.502;7.108;2022-07-06T04:17:44;15.20;99.90
31619;DHT22;18230;51.502;7.108;2022-07-06T04:22:53;15.30;99.90
31619;DHT22;18230;51.502;7.108;2022-07-06T04:27:54;15.30;99.90
31619;DHT22;18230;51.502;7.108;2022-07-06T04:32:54;15.40;99.90
31619;DHT22;18230;51.502;7.108;2022-07-06T04:37:58;15.50;99.90
31619;DHT22;18230;51.502;7.108;2022-07-06T04:42:59;15.50;99.90
31619;DHT22;18230;51.502;7.108;2022-07-06T04:47:59;15.50;99.90
31619;DHT22;18230;51.502;7.108;2022-07-06T04:53:00;15.50;99.90
31619;DHT22;18230;51.502;7.108;2022-07-06T04:58:01;15.50;99.90
31619;DHT22;18230;51.502;7.108;2022-07-06T05:03:01;15.80;99.90
31619;DHT22;18230;51.502;7.108;2022-07-06T05:08:02;15.90;99.90
31619;DHT22;18230;51.502;7.108;2022-07-06T05:13:03;16.10;99.90
31619;DHT22;18230;51.502;7.108;2022-07-06T05:18:03;16.20;99.90
31619;DHT22;18230;51.502;7.108;2022-07-06T05:23:04;16.30;99.90
31619;DHT22;18230;51.502;7.108;2022-07-06T05:28:05;16.60;99.90
31619;DHT22;18230;51.502;7.108;2022-07-06T05:33:06;16.70;99.90
31619;DHT22;18230;51.502;7.108;2022-07-06T05:38:06;16.70;99.90
31619;DHT22;18230;51.502;7.108;2022-07-06T05:43:07;16.90;99.90
31619;DHT22;18230;51.502;7.108;2022-07-06T05:48:07;16.80;99.90
31619;DHT22;18230;51.502;7.108;2022-07-06T05:53:26;16.80;99.90
31619;DHT22;18230;51.502;7.108;2022-07-06T05:58:27;16.90;99.90
31619;DHT22;18230;51.502;7.108;2022-07-06T06:03:28;17.00;99.90
31619;DHT22;18230;51.502;7.108;2022-07-06T06:08:28;17.10;99.90
31619;DHT22;18230;51.502;7.108;2022-07-06T06:13:29;17.20;99.90
31619;DHT22;18230;51.502;7.108;2022-07-06T06:18:30;17.30;99.90
31619;DHT22;18230;51.502;7.108;2022-07-06T06:23:31;17.40;99.90
31619;DHT22;18230;51.502;7.108;2022-07-06T06:28:31;17.30;99.90
31619;DHT22;18230;51.502;7.108;2022-07-06T06:33:32;17.30;99.90
31619;DHT22;18230;51.502;7.108;2022-07-06T06:38:33;17.50;99.90
31619;DHT22;18230;51.502;7.108;2022-07-06T06:43:34;17.60;99.90
31619;DHT22;18230;51.502;7.108;2022-07-06T06:48:34;17.60;99.90
31619;DHT22;18230;51.502;7.108;2022-07-06T06:53:35;17.70;99.90
31619;DHT22;18230;51.502;7.108;2022-07-06T06:58:36;17.80;99.90
31619;DHT22;18230;51.502;7.108;2022-07-06T07:03:36;17.80;99.90
31619;DHT22;18230;51.502;7.108;2022-07-06T07:08:37;17.80;99.90
31619;DHT22;18230;51.502;7.108;2022-07-06T07:13:38;17.90;99.90
31619;DHT22;18230;51.502;7.108;2022-07-06T07:18:38;18.00;99.90
31619;DHT22;18230;51.502;7.108;2022-07-06T07:23:39;18.00;99.90
31619;DHT22;18230;51.502;7.108;2022-07-06T07:28:40;18.10;99.90
31619;DHT22;18230;51.502;7.108;2022-07-06T07:33:40;18.40;99.90
31619;DHT22;18230;51.502;7.108;2022-07-06T07:38:41;18.40;99.90
31619;DHT22;18230;51.502;7.108;2022-07-06T07:43:43;18.60;99.90
31619;DHT22;18230;51.502;7.108;2022-07-06T07:48:43;18.70;99.90
31619;DHT22;18230;51.502;7.108;2022-07-06T07:53:44;18.80;99.90
31619;DHT22;18230;51.502;7.108;2022-07-06T07:58:45;19.00;99.90
31619;DHT22;18230;51.502;7.108;2022-07-06T08:03:48;19.00;99.90
31619;DHT22;18230;51.502;7.108;2022-07-06T08:08:49;18.90;99.90
31619;DHT22;18230;51.502;7.108;2022-07-06T08:13:50;19.30;99.90
31619;DHT22;18230;51.502;7.108;2022-07-06T08:18:51;19.30;99.90
31619;DHT22;18230;51.502;7.108;2022-07-06T08:23:52;19.50;99.90
31619;DHT22;18230;51.502;7.108;2022-07-06T08:28:53;19.60;99.90
31619;DHT22;18230;51.502;7.108;2022-07-06T08:33:54;19.60;99.90
31619;DHT22;18230;51.502;7.108;2022-07-06T08:38:56;19.60;99.90
31619;DHT22;18230;51.502;7.108;2022-07-06T08:43:56;19.40;99.90
31619;DHT22;18230;51.502;7.108;2022-07-06T08:48:58;19.50;99.90
31619;DHT22;18230;51.502;7.108;2022-07-06T08:53:59;19.60;99.90
31619;DHT22;18230;51.502;7.108;2022-07-06T08:59:00;19.60;99.90
31619;DHT22;18230;51.502;7.108;2022-07-06T09:04:02;19.80;99.90
31619;DHT22;18230;51.502;7.108;2022-07-06T09:09:05;19.90;99.90
31619;DHT22;18230;51.502;7.108;2022-07-06T09:14:07;19.90;99.90
31619;DHT22;18230;51.502;7.108;2022-07-06T09:19:11;20.00;99.90
31619;DHT22;18230;51.502;7.108;2022-07-06T09:24:12;20.10;99.90
31619;DHT22;18230;51.502;7.108;2022-07-06T09:29:13;20.30;99.90
31619;DHT22;18230;51.502;7.108;2022-07-06T09:34:14;20.30;99.90
31619;DHT22;18230;51.502;7.108;2022-07-06T09:39:27;20.30;99.90
31619;DHT22;18230;51.502;7.108;2022-07-06T09:44:33;20.50;99.90
31619;DHT22;18230;51.502;7.108;2022-07-06T09:49:34;20.40;99.90
31619;DHT22;18230;51.502;7.108;2022-07-06T09:54:36;20.50;99.90
31619;DHT22;18230;51.502;7.108;2022-07-06T09:59:37;20.50;99.90
31619;DHT22;18230;51.502;7.108;2022-07-06T10:04:38;20.70;99.90
31619;DHT22;18230;51.502;7.108;2022-07-06T10:09:40;21.00;99.70
31619;DHT22;18230;51.502;7.108;2022-07-06T10:14:41;21.30;99.00
31619;DHT22;18230;51.502;7.108;2022-07-06T10:19:43;21.30;98.90
31619;DHT22;18230;51.502;7.108;2022-07-06T10:24:45;21.20;99.10
31619;DHT22;18230;51.502;7.108;2022-07-06T10:29:46;21.10;98.90
31619;DHT22;18230;51.502;7.108;2022-07-06T10:34:47;21.10;98.20
31619;DHT22;18230;51.502;7.108;2022-07-06T10:39:48;21.20;97.20
31619;DHT22;18230;51.502;7.108;2022-07-06T10:45:08;21.20;97.10
31619;DHT22;18230;51.502;7.108;2022-07-06T10:50:11;21.50;96.60
31619;DHT22;18230;51.502;7.108;2022-07-06T10:55:32;22.00;95.40
31619;DHT22;18230;51.502;7.108;2022-07-06T11:00:52;21.90;93.50
31619;DHT22;18230;51.502;7.108;2022-07-06T11:05:58;21.70;94.00
31619;DHT22;18230;51.502;7.108;2022-07-06T11:11:20;21.70;94.20
31619;DHT22;18230;51.502;7.108;2022-07-06T11:16:23;22.00;92.50
31619;DHT22;18230;51.502;7.108;2022-07-06T11:21:43;22.20;92.90
31619;DHT22;18230;51.502;7.108;2022-07-06T11:26:47;22.20;91.20
31619;DHT22;18230;51.502;7.108;2022-07-06T11:31:49;21.90;91.90
31619;DHT22;18230;51.502;7.108;2022-07-06T11:41:58;21.50;93.40
31619;DHT22;18230;51.502;7.108;2022-07-06T11:46:59;21.60;93.90
31619;DHT22;18230;51.502;7.108;2022-07-06T11:52:11;22.10;92.30
31619;DHT22;18230;51.502;7.108;2022-07-06T11:57:12;22.60;91.40
31619;DHT22;18230;51.502;7.108;2022-07-06T12:02:16;22.50;91.10
31619;DHT22;18230;51.502;7.108;2022-07-06T12:07:18;22.50;90.80
31619;DHT22;18230;51.502;7.108;2022-07-06T12:12:19;22.50;91.20
31619;DHT22;18230;51.502;7.108;2022-07-06T12:17:20;22.50;90.90
31619;DHT22;18230;51.502;7.108;2022-07-06T12:22:26;23.00;90.40
31619;DHT22;18230;51.502;7.108;2022-07-06T12:27:27;23.40;87.60
31619;DHT22;18230;51.502;7.108;2022-07-06T12:32:28;23.30;85.10
31619;DHT22;18230;51.502;7.108;2022-07-06T12:37:29;23.40;83.70
31619;DHT22;18230;51.502;7.108;2022-07-06T12:42:29;23.40;81.90
31619;DHT22;18230;51.502;7.108;2022-07-06T12:47:30;23.50;81.70
31619;DHT22;18230;51.502;7.108;2022-07-06T12:52:31;23.50;80.50
31619;DHT22;18230;51.502;7.108;2022-07-06T12:57:45;23.50;81.50
31619;DHT22;18230;51.502;7.108;2022-07-06T13:02:52;23.40;81.40
31619;DHT22;18230;51.502;7.108;2022-07-06T13:07:57;23.40;83.10
31619;DHT22;18230;51.502;7.108;2022-07-06T13:12:58;23.20;82.30
31619;DHT22;18230;51.502;7.108;2022-07-06T13:17:59;23.00;83.80
31619;DHT22;18230;51.502;7.108;2022-07-06T13:22:59;23.20;82.60
31619;DHT22;18230;51.502;7.108;2022-07-06T13:28:00;23.20;81.20
31619;DHT22;18230;51.502;7.108;2022-07-06T13:33:00;23.00;82.20
31619;DHT22;18230;51.502;7.108;2022-07-06T13:38:01;23.30;80.80
31619;DHT22;18230;51.502;7.108;2022-07-06T13:43:02;23.70;80.40
31619;DHT22;18230;51.502;7.108;2022-07-06T13:48:04;23.80;80.20
31619;DHT22;18230;51.502;7.108;2022-07-06T13:53:05;23.40;80.80
31619;DHT22;18230;51.502;7.108;2022-07-06T13:58:06;23.30;81.10
31619;DHT22;18230;51.502;7.108;2022-07-06T14:03:07;23.30;79.90
31619;DHT22;18230;51.502;7.108;2022-07-06T14:08:08;23.40;79.50
31619;DHT22;18230;51.502;7.108;2022-07-06T14:13:09;23.20;80.40
31619;DHT22;18230;51.502;7.108;2022-07-06T14:18:10;22.90;80.40
31619;DHT22;18230;51.502;7.108;2022-07-06T14:23:11;22.80;81.60
31619;DHT22;18230;51.502;7.108;2022-07-06T14:28:12;22.80;81.50
31619;DHT22;18230;51.502;7.108;2022-07-06T14:33:17;23.00;80.90
31619;DHT22;18230;51.502;7.108;2022-07-06T14:38:18;23.20;80.10
31619;DHT22;18230;51.502;7.108;2022-07-06T14:43:19;23.30;80.00
31619;DHT22;18230;51.502;7.108;2022-07-06T14:48:20;23.30;79.90
31619;DHT22;18230;51.502;7.108;2022-07-06T14:53:21;23.30;80.10
31619;DHT22;18230;51.502;7.108;2022-07-06T14:58:21;23.20;78.80
31619;DHT22;18230;51.502;7.108;2022-07-06T15:03:23;23.30;78.40
31619;DHT22;18230;51.502;7.108;2022-07-06T15:08:23;23.40;78.90
31619;DHT22;18230;51.502;7.108;2022-07-06T15:13:24;23.50;77.60
31619;DHT22;18230;51.502;7.108;2022-07-06T15:18:26;23.30;78.20
31619;DHT22;18230;51.502;7.108;2022-07-06T15:23:26;23.30;78.20
31619;DHT22;18230;51.502;7.108;2022-07-06T15:28:27;24.40;77.20
31619;DHT22;18230;51.502;7.108;2022-07-06T15:33:29;24.70;75.60
31619;DHT22;18230;51.502;7.108;2022-07-06T15:38:29;24.40;74.30
31619;DHT22;18230;51.502;7.108;2022-07-06T15:43:31;24.70;74.70
31619;DHT22;18230;51.502;7.108;2022-07-06T15:48:32;25.00;71.90
31619;DHT22;18230;51.502;7.108;2022-07-06T15:53:33;24.60;72.60
31619;DHT22;18230;51.502;7.108;2022-07-06T15:58:33;24.20;73.40
31619;DHT22;18230;51.502;7.108;2022-07-06T16:03:34;24.10;73.80
31619;DHT22;18230;51.502;7.108;2022-07-06T16:08:40;24.10;74.10
31619;DHT22;18230;51.502;7.108;2022-07-06T16:13:41;24.10;74.10
31619;DHT22;18230;51.502;7.108;2022-07-06T16:18:41;24.10;75.00
31619;DHT22;18230;51.502;7.108;2022-07-06T16:23:42;24.60;73.90
31619;DHT22;18230;51.502;7.108;2022-07-06T16:28:43;24.30;74.10
31619;DHT22;18230;51.502;7.108;2022-07-06T16:33:44;24.30;74.40
31619;DHT22;18230;51.502;7.108;2022-07-06T16:38:44;24.10;75.20
31619;DHT22;18230;51.502;7.108;2022-07-06T16:43:45;24.20;74.90
31619;DHT22;18230;51.502;7.108;2022-07-06T16:48:46;24.70;73.50
31619;DHT22;18230;51.502;7.108;2022-07-06T16:53:46;24.40;74.20
31619;DHT22;18230;51.502;7.108;2022-07-06T16:58:47;24.20;75.00
31619;DHT22;18230;51.502;7.108;2022-07-06T17:03:48;24.00;75.10
31619;DHT22;18230;51.502;7.108;2022-07-06T17:08:48;24.10;75.60
31619;DHT22;18230;51.502;7.108;2022-07-06T17:13:49;23.80;75.60
31619;DHT22;18230;51.502;7.108;2022-07-06T17:18:50;23.60;76.60
31619;DHT22;18230;51.502;7.108;2022-07-06T17:23:51;23.60;77.20
31619;DHT22;18230;51.502;7.108;2022-07-06T17:28:52;23.40;77.70
31619;DHT22;18230;51.502;7.108;2022-07-06T17:33:56;23.20;77.70
31619;DHT22;18230;51.502;7.108;2022-07-06T17:38:57;23.20;78.60
31619;DHT22;18230;51.502;7.108;2022-07-06T17:43:58;23.00;79.00
31619;DHT22;18230;51.502;7.108;2022-07-06T17:48:59;22.90;79.90
31619;DHT22;18230;51.502;7.108;2022-07-06T17:54:00;22.80;80.10
31619;DHT22;18230;51.502;7.108;2022-07-06T17:59:00;22.80;80.50
31619;DHT22;18230;51.502;7.108;2022-07-06T18:04:01;22.70;81.00
31619;DHT22;18230;51.502;7.108;2022-07-06T18:09:02;22.60;81.30
31619;DHT22;18230;51.502;7.108;2022-07-06T18:14:03;22.60;82.20
31619;DHT22;18230;51.502;7.108;2022-07-06T18:19:03;22.50;82.50
31619;DHT22;18230;51.502;7.108;2022-07-06T18:24:04;22.40;82.80
31619;DHT22;18230;51.502;7.108;2022-07-06T18:29:05;22.20;83.60
31619;DHT22;18230;51.502;7.108;2022-07-06T18:34:06;22.30;83.40
31619;DHT22;18230;51.502;7.108;2022-07-06T18:39:13;22.30;84.20
31619;DHT22;18230;51.502;7.108;2022-07-06T18:44:18;22.30;84.30
31619;DHT22;18230;51.502;7.108;2022-07-06T18:49:19;22.30;84.70
31619;DHT22;18230;51.502;7.108;2022-07-06T18:54:20;22.20;84.90
31619;DHT22;18230;51.502;7.108;2022-07-06T18:59:21;22.00;86.20
31619;DHT22;18230;51.502;7.108;2022-07-06T19:04:21;22.10;88.00
31619;DHT22;18230;51.502;7.108;2022-07-06T19:09:22;22.00;88.00
31619;DHT22;18230;51.502;7.108;2022-07-06T19:14:23;21.90;89.20
31619;DHT22;18230;51.502;7.108;2022-07-06T19:19:26;21.90;89.50
31619;DHT22;18230;51.502;7.108;2022-07-06T19:24:27;21.80;89.60
31619;DHT22;18230;51.502;7.108;2022-07-06T19:29:28;21.70;90.20
31619;DHT22;18230;51.502;7.108;2022-07-06T19:34:29;21.70;90.40
31619;DHT22;18230;51.502;7.108;2022-07-06T19:39:29;21.50;90.50
31619;DHT22;18230;51.502;7.108;2022-07-06T19:44:30;21.50;91.00
31619;DHT22;18230;51.502;7.108;2022-07-06T19:49:31;21.50;91.10
31619;DHT22;18230;51.502;7.108;2022-07-06T19:54:31;21.50;91.10
31619;DHT22;18230;51.502;7.108;2022-07-06T19:59:32;21.40;91.20
31619;DHT22;18230;51.502;7.108;2022-07-06T20:04:33;21.40;91.30
31619;DHT22;18230;51.502;7.108;2022-07-06T20:09:34;21.30;91.60
31619;DHT22;18230;51.502;7.108;2022-07-06T20:14:35;21.30;91.80
31619;DHT22;18230;51.502;7.108;2022-07-06T20:19:36;21.30;91.90
31619;DHT22;18230;51.502;7.108;2022-07-06T20:24:37;21.20;91.90
31619;DHT22;18230;51.502;7.108;2022-07-06T20:29:38;21.20;92.00
31619;DHT22;18230;51.502;7.108;2022-07-06T20:34:39;21.30;91.90
31619;DHT22;18230;51.502;7.108;2022-07-06T20:39:40;21.20;91.90
31619;DHT22;18230;51.502;7.108;2022-07-06T20:44:40;21.30;92.00
31619;DHT22;18230;51.502;7.108;2022-07-06T20:49:42;21.30;92.10
31619;DHT22;18230;51.502;7.108;2022-07-06T20:54:43;21.20;92.10
31619;DHT22;18230;51.502;7.108;2022-07-06T20:59:43;21.20;92.30
31619;DHT22;18230;51.502;7.108;2022-07-06T21:04:44;21.20;92.40
31619;DHT22;18230;51.502;7.108;2022-07-06T21:09:45;21.20;92.70
31619;DHT22;18230;51.502;7.108;2022-07-06T21:14:46;21.20;92.60
31619;DHT22;18230;51.502;7.108;2022-07-06T21:19:46;21.10;92.90
31619;DHT22;18230;51.502;7.108;2022-07-06T21:24:47;21.10;93.40
31619;DHT22;18230;51.502;7.108;2022-07-06T21:29:48;21.10;93.30
31619;DHT22;18230;51.502;7.108;2022-07-06T21:34:48;21.10;93.40
31619;DHT22;18230;51.502;7.108;2022-07-06T21:39:49;21.00;93.70
31619;DHT22;18230;51.502;7.108;2022-07-06T21:44:50;20.90;94.00
31619;DHT22;18230;51.502;7.108;2022-07-06T21:49:50;20.90;94.30
31619;DHT22;18230;51.502;7.108;2022-07-06T21:54:51;20.90;94.60
31619;DHT22;18230;51.502;7.108;2022-07-06T21:59:52;20.90;94.90
31619;DHT22;18230;51.502;7.108;2022-07-06T22:04:52;20.90;95.30
31619;DHT22;18230;51.502;7.108;2022-07-06T22:09:54;20.80;95.70
31619;DHT22;18230;51.502;7.108;2022-07-06T22:14:55;20.80;96.10
31619;DHT22;18230;51.502;7.108;2022-07-06T22:19:56;20.80;96.40
31619;DHT22;18230;51.502;7.108;2022-07-06T22:24:59;20.80;96.70
31619;DHT22;18230;51.502;7.108;2022-07-06T22:29:59;20.80;97.10
31619;DHT22;18230;51.502;7.108;2022-07-06T22:35:00;20.80;97.40
31619;DHT22;18230;51.502;7.108;2022-07-06T22:40:01;20.70;97.80
31619;DHT22;18230;51.502;7.108;2022-07-06T22:45:28;20.70;98.10
31619;DHT22;18230;51.502;7.108;2022-07-06T22:50:28;20.60;98.70
31619;DHT22;18230;51.502;7.108;2022-07-06T22:55:29;20.60;99.30
31619;DHT22;18230;51.502;7.108;2022-07-06T23:00:30;20.50;99.80
31619;DHT22;18230;51.502;7.108;2022-07-06T23:05:30;20.50;99.90
31619;DHT22;18230;51.502;7.108;2022-07-06T23:10:31;20.40;99.90
31619;DHT22;18230;51.502;7.108;2022-07-06T23:15:33;20.40;99.90
31619;DHT22;18230;51.502;7.108;2022-07-06T23:20:35;20.40;99.90
31619;DHT22;18230;51.502;7.108;2022-07-06T23:25:36;20.30;99.90
31619;DHT22;18230;51.502;7.108;2022-07-06T23:30:37;20.20;99.90
31619;DHT22;18230;51.502;7.108;2022-07-06T23:35:37;20.10;99.90
31619;DHT22;18230;51.502;7.108;2022-07-06T23:40:38;20.10;99.90
31619;DHT22;18230;51.502;7.108;2022-07-06T23:45:39;20.10;99.90
31619;DHT22;18230;51.502;7.108;2022-07-06T23:50:40;20.00;99.90
31619;DHT22;18230;51.502;7.108;2022-07-06T23:55:40;20.10;99.90
